Time;durP1;ratioP1;P1;durP2;ratioP2;P2;SDS_P1;SDS_P2;PMS_P1;PMS_P2;Temp;Humidity;BMP_temperature;BMP_pressure;BME280_temperature;BME280_humidity;BME280_pressure;Samples;Min_cycle;Max_cycle;Signal;HPM_P1;HPM_P2
2021/05/13 00:00:47;;;;;;;10.40;9.60;;;8.80;84.10;;;;;;5188209;28;20045;-67
2021/05/13 00:03:18;;;;;;;10.40;9.40;;;8.90;84.40;;;;;;5186816;28;20573;-67
2021/05/13 00:05:53;;;;;;;10.38;9.30;;;8.90;85.00;;;;;;5186788;28;20108;-67
2021/05/13 00:08:26;;;;;;;10.07;9.07;;;8.90;84.50;;;;;;5196739;28;20457;-67
2021/05/13 00:11:04;;;;;;;9.88;9.07;;;8.90;83.70;;;;;;5188471;28;20348;-67
2021/05/13 00:13:38;;;;;;;9.45;8.65;;;8.90;83.90;;;;;;5189979;28;20131;-67
2021/05/13 00:16:09;;;;;;;9.80;9.00;;;8.90;83.70;;;;;;5186246;28;20538;-67
2021/05/13 00:18:42;;;;;;;9.93;9.00;;;8.90;84.10;;;;;;5186905;28;20046;-67
2021/05/13 00:21:13;;;;;;;9.80;8.93;;;8.90;84.20;;;;;;5184369;28;20041;-67
2021/05/13 00:23:45;;;;;;;9.15;8.45;;;8.90;84.20;;;;;;5188056;28;20049;-67
2021/05/13 00:26:34;;;;;;;9.20;8.50;;;8.90;83.90;;;;;;5186108;28;20045;-67
2021/05/13 00:29:08;;;;;;;8.88;8.18;;;8.90;83.40;;;;;;5185031;28;20081;-67
2021/05/13 00:31:42;;;;;;;8.73;8.02;;;8.90;83.40;;;;;;5189055;28;20818;-67
2021/05/13 00:34:14;;;;;;;9.18;8.43;;;8.90;83.30;;;;;;5193445;28;20123;-67
2021/05/13 00:36:46;;;;;;;8.60;7.90;;;8.80;83.30;;;;;;5191602;28;20095;-67
2021/05/13 00:39:18;;;;;;;8.68;7.97;;;8.80;83.20;;;;;;5188142;28;20553;-67
2021/05/13 00:41:50;;;;;;;9.00;8.30;;;8.80;83.40;;;;;;5186202;28;20042;-67
2021/05/13 00:44:22;;;;;;;8.90;8.20;;;8.80;83.50;;;;;;5186448;28;20502;-67
2021/05/13 00:46:54;;;;;;;9.82;9.00;;;8.80;83.70;;;;;;5188576;28;20037;-68
2021/05/13 00:49:27;;;;;;;9.18;8.48;;;8.80;83.30;;;;;;5184524;28;20380;-68
2021/05/13 00:52:00;;;;;;;9.73;8.93;;;8.80;83.40;;;;;;5185602;28;20049;-67
2021/05/13 00:54:32;;;;;;;9.00;8.20;;;8.80;83.70;;;;;;5187637;28;20152;-68
2021/05/13 00:57:06;;;;;;;9.00;8.30;;;8.90;83.30;;;;;;5183050;28;20100;-67
2021/05/13 00:59:42;;;;;;;8.73;8.02;;;8.80;83.00;;;;;;5187583;28;20132;-68
2021/05/13 01:02:14;;;;;;;9.50;8.77;;;8.80;83.00;;;;;;5188248;28;20383;-67
2021/05/13 01:04:46;;;;;;;9.63;8.82;;;8.80;82.90;;;;;;5183792;28;20033;-67
2021/05/13 01:07:18;;;;;;;9.52;8.73;;;8.90;83.30;;;;;;5184003;28;20151;-67
2021/05/13 01:09:50;;;;;;;8.90;8.20;;;8.80;83.10;;;;;;5185828;28;20049;-67
2021/05/13 01:12:22;;;;;;;9.10;8.40;;;8.80;83.40;;;;;;5207264;28;20045;-68
2021/05/13 01:14:55;;;;;;;9.07;8.38;;;8.90;82.90;;;;;;5206912;28;20172;-67
2021/05/13 01:18:15;;;;;;;9.50;8.60;;;8.90;82.90;;;;;;5206640;28;20103;-67
2021/05/13 01:20:19;;;;;;;9.43;8.73;;;8.90;83.10;;;;;;5197335;28;20053;-67
2021/05/13 01:22:52;;;;;;;9.77;8.98;;;8.80;83.00;;;;;;5207355;28;20041;-67
2021/05/13 01:25:25;;;;;;;9.60;8.90;;;8.80;83.20;;;;;;5205306;28;20046;-68
2021/05/13 01:27:59;;;;;;;9.20;8.50;;;8.70;83.50;;;;;;5203600;28;20507;-68
2021/05/13 01:30:57;;;;;;;9.45;8.73;;;8.70;84.30;;;;;;6276516;22;21006;31
2021/05/13 01:33:29;;;;;;;9.95;9.15;;;8.70;83.50;;;;;;5182947;23;20084;-76
2021/05/13 01:36:01;;;;;;;9.48;8.77;;;8.70;83.90;;;;;;5191921;28;20128;-76
2021/05/13 01:38:33;;;;;;;9.80;9.02;;;8.70;84.00;;;;;;5177332;28;20081;-76
2021/05/13 01:41:05;;;;;;;10.10;9.30;;;8.60;83.90;;;;;;5183585;28;20057;-76
2021/05/13 01:43:37;;;;;;;10.13;9.23;;;8.60;84.10;;;;;;5199662;28;20045;-76
2021/05/13 01:46:09;;;;;;;10.27;9.45;;;8.60;84.30;;;;;;5190069;28;20049;-78
2021/05/13 01:48:42;;;;;;;10.68;9.77;;;8.60;84.40;;;;;;5179156;28;20677;-76
2021/05/13 01:51:14;;;;;;;10.07;9.18;;;8.60;84.10;;;;;;5177383;28;20053;-77
2021/05/13 01:53:47;;;;;;;10.40;9.57;;;8.60;84.30;;;;;;5178518;28;20057;-78
2021/05/13 01:56:19;;;;;;;10.32;9.52;;;8.60;84.60;;;;;;5162111;28;20050;-76
2021/05/13 01:58:51;;;;;;;9.98;9.18;;;8.60;84.90;;;;;;5180186;28;20050;-77
2021/05/13 02:01:22;;;;;;;10.20;9.40;;;8.60;84.60;;;;;;5183634;28;20045;-78
2021/05/13 02:03:55;;;;;;;10.32;9.38;;;8.50;84.90;;;;;;5183165;28;20038;-77
2021/05/13 02:06:27;;;;;;;12.18;9.70;;;8.50;84.90;;;;;;5180114;28;20133;-77
2021/05/13 02:08:59;;;;;;;10.00;9.10;;;8.50;84.80;;;;;;5181316;28;20042;-76
2021/05/13 02:11:31;;;;;;;10.20;9.40;;;8.50;85.80;;;;;;5181842;28;20054;-79
2021/05/13 02:14:03;;;;;;;9.80;9.00;;;8.40;84.80;;;;;;5189000;28;20049;-76
2021/05/13 02:16:35;;;;;;;9.98;9.18;;;8.40;84.80;;;;;;5179770;28;20128;-77
2021/05/13 02:19:07;;;;;;;9.70;8.90;;;8.40;84.90;;;;;;5185315;28;20912;-77
2021/05/13 02:21:40;;;;;;;9.70;8.80;;;8.40;84.60;;;;;;5161760;28;20060;-77
2021/05/13 02:24:12;;;;;;;9.82;9.02;;;8.40;84.60;;;;;;5180731;28;20042;-77
2021/05/13 02:26:44;;;;;;;9.55;8.85;;;8.40;84.70;;;;;;5180527;28;20690;-77
2021/05/13 02:29:16;;;;;;;9.70;8.90;;;8.50;84.80;;;;;;5195216;28;20054;-77
2021/05/13 02:31:48;;;;;;;9.75;8.95;;;8.40;84.70;;;;;;5181780;28;20171;-76
2021/05/13 02:34:20;;;;;;;9.63;8.82;;;8.40;84.50;;;;;;5182216;28;20137;-77
2021/05/13 02:36:52;;;;;;;9.30;8.60;;;8.40;84.40;;;;;;5179462;28;20046;-76
2021/05/13 02:39:24;;;;;;;8.80;8.10;;;8.40;84.20;;;;;;5181106;28;20053;-77
2021/05/13 02:41:56;;;;;;;9.65;8.85;;;8.50;84.20;;;;;;5182837;28;20580;-76
2021/05/13 02:44:28;;;;;;;10.55;9.55;;;8.50;85.10;;;;;;5182875;28;20189;-76
2021/05/13 02:47:00;;;;;;;10.70;9.70;;;8.50;85.60;;;;;;5183682;28;20056;-76
2021/05/13 02:49:32;;;;;;;10.88;9.98;;;8.50;86.30;;;;;;5184187;28;20217;-76
2021/05/13 02:52:05;;;;;;;11.27;10.38;;;8.40;87.10;;;;;;5182771;28;20411;-76
2021/05/13 02:54:37;;;;;;;10.65;9.75;;;8.30;86.70;;;;;;5182252;28;20076;-77
2021/05/13 02:57:09;;;;;;;10.23;9.43;;;8.30;86.30;;;;;;5180461;28;20049;-78
2021/05/13 03:02:14;;;;;;;11.23;10.25;;;8.40;86.60;;;;;;5179106;28;20176;-77
2021/05/13 03:04:46;;;;;;;10.60;9.70;;;8.40;86.30;;;;;;5182589;28;20125;-77
2021/05/13 03:07:18;;;;;;;10.18;9.38;;;8.50;86.30;;;;;;5180975;28;20139;-77
2021/05/13 03:09:58;;;;;;;10.20;9.30;;;8.40;86.10;;;;;;5181973;28;20069;-77
2021/05/13 03:12:30;;;;;;;9.73;8.93;;;8.50;86.20;;;;;;5179740;28;20112;-78
2021/05/13 03:15:02;;;;;;;10.13;9.32;;;8.50;85.80;;;;;;5178006;28;20447;-77
2021/05/13 03:17:34;;;;;;;10.63;9.63;;;8.50;86.30;;;;;;5181191;28;20050;-76
2021/05/13 03:20:07;;;;;;;10.68;9.77;;;8.40;86.20;;;;;;5181136;28;20050;-76
2021/05/13 03:22:38;;;;;;;11.00;10.10;;;8.40;86.90;;;;;;5179275;28;20103;-76
2021/05/13 03:25:13;;;;;;;10.23;9.43;;;8.30;87.20;;;;;;5180528;28;20038;-77
2021/05/13 03:27:49;;;;;;;10.13;9.32;;;8.30;87.00;;;;;;5181166;28;20049;-76
2021/05/13 03:30:25;;;;;;;10.43;9.63;;;8.30;86.90;;;;;;5179866;28;20042;-77
2021/05/13 03:32:57;;;;;;;10.35;9.48;;;8.30;86.70;;;;;;5177777;28;20056;-76
2021/05/13 03:35:29;;;;;;;10.30;9.40;;;8.30;86.60;;;;;;5180607;28;20364;-76
2021/05/13 03:38:02;;;;;;;10.75;9.85;;;8.30;86.60;;;;;;5180686;28;20054;-76
2021/05/13 03:40:35;;;;;;;10.00;9.20;;;8.40;86.20;;;;;;5180552;28;20498;-77
2021/05/13 03:43:08;;;;;;;9.80;9.00;;;8.40;86.30;;;;;;5180795;28;20653;-76
2021/05/13 03:45:40;;;;;;;9.63;8.82;;;8.40;86.10;;;;;;5179835;28;20042;-78
2021/05/13 03:48:12;;;;;;;9.73;8.93;;;8.50;86.10;;;;;;5180531;28;20053;-78
2021/05/13 03:50:44;;;;;;;10.20;9.30;;;8.50;86.10;;;;;;5179464;28;20049;-78
2021/05/13 03:53:16;;;;;;;10.10;9.30;;;8.50;86.20;;;;;;5180447;28;20045;-79
2021/05/13 03:55:52;;;;;;;9.85;9.05;;;8.50;86.00;;;;;;5178993;28;20050;-79
2021/05/13 03:58:28;;;;;;;10.05;9.25;;;8.50;86.10;;;;;;5179660;28;20303;-78
2021/05/13 04:03:33;;;;;;;10.63;9.73;;;8.50;86.50;;;;;;5180605;28;20054;-80
2021/05/13 04:06:05;;;;;;;10.73;9.93;;;8.50;87.00;;;;;;5179575;28;20084;-77
2021/05/13 04:08:37;;;;;;;10.65;9.85;;;8.50;86.60;;;;;;5178969;28;20050;-79
2021/05/13 04:11:09;;;;;;;10.75;9.85;;;8.50;86.40;;;;;;5177775;28;20578;-78
2021/05/13 04:13:41;;;;;;;10.68;9.77;;;8.50;86.10;;;;;;5179738;28;20056;-78
2021/05/13 04:16:13;;;;;;;10.25;9.45;;;8.50;85.60;;;;;;5179237;28;20046;-78
2021/05/13 04:18:44;;;;;;;9.70;8.93;;;8.50;85.80;;;;;;5179154;28;20045;-78
2021/05/13 04:21:16;;;;;;;9.88;9.07;;;8.60;85.70;;;;;;5177831;28;20049;-78
2021/05/13 04:23:49;;;;;;;10.25;9.45;;;8.60;85.60;;;;;;5178443;28;20396;-78
2021/05/13 04:26:21;;;;;;;10.20;9.40;;;8.60;85.60;;;;;;5179213;28;20384;-77
2021/05/13 04:28:53;;;;;;;10.30;9.30;;;8.60;85.40;;;;;;5177704;28;20060;-76
2021/05/13 04:31:24;;;;;;;9.25;8.55;;;8.70;85.40;;;;;;5178654;28;20427;-75
2021/05/13 04:33:56;;;;;;;9.48;8.73;;;8.70;85.40;;;;;;5177535;28;20120;-75
2021/05/13 04:36:29;;;;;;;9.63;8.82;;;8.70;85.60;;;;;;5178673;28;20442;-74
2021/05/13 04:39:01;;;;;;;9.80;9.00;;;8.70;85.50;;;;;;5179044;28;20092;-74
2021/05/13 04:41:33;;;;;;;9.75;9.05;;;8.80;85.40;;;;;;5178573;28;20081;-74
2021/05/13 04:44:06;;;;;;;9.60;8.80;;;8.70;85.80;;;;;;5178801;28;20518;-75
2021/05/13 04:46:38;;;;;;;9.90;9.10;;;8.80;86.70;;;;;;5177431;28;20042;-76
2021/05/13 04:51:45;;;;;;;9.82;9.02;;;8.80;85.60;;;;;;5177324;28;20137;-74
2021/05/13 04:54:17;;;;;;;9.55;8.75;;;8.70;86.20;;;;;;5180599;28;20084;-75
2021/05/13 04:56:49;;;;;;;9.88;9.05;;;8.70;86.20;;;;;;5176764;28;20048;-76
2021/05/13 04:59:22;;;;;;;9.95;9.13;;;8.70;86.40;;;;;;5178292;28;20133;-76
2021/05/13 05:01:54;;;;;;;9.35;8.65;;;8.70;86.30;;;;;;5176356;28;20435;-76
2021/05/13 05:04:28;;;;;;;9.40;8.60;;;8.70;86.00;;;;;;5179296;28;20125;-75
2021/05/13 05:07:00;;;;;;;9.23;8.52;;;8.70;86.10;;;;;;5177069;28;20098;-75
2021/05/13 05:09:33;;;;;;;9.82;9.02;;;8.70;85.90;;;;;;5176274;28;20046;-76
2021/05/13 05:12:07;;;;;;;9.57;8.77;;;8.70;86.10;;;;;;5176313;28;20077;-76
2021/05/13 05:14:40;;;;;;;9.50;8.70;;;8.70;86.10;;;;;;5175435;28;20060;-75
2021/05/13 05:17:12;;;;;;;9.68;8.88;;;8.70;86.10;;;;;;5176190;28;20050;-75
2021/05/13 05:19:44;;;;;;;9.88;9.07;;;8.70;86.40;;;;;;5179171;28;20038;-75
2021/05/13 05:22:15;;;;;;;9.60;8.80;;;8.60;86.10;;;;;;5177116;28;20038;-74
2021/05/13 05:24:48;;;;;;;9.52;8.73;;;8.70;86.30;;;;;;5179447;28;20046;-75
2021/05/13 05:27:19;;;;;;;9.73;8.93;;;8.70;86.70;;;;;;5177391;28;20046;-75
2021/05/13 05:29:51;;;;;;;9.77;8.98;;;8.70;86.70;;;;;;5178723;28;20463;-76
2021/05/13 05:32:23;;;;;;;9.90;9.10;;;8.80;86.50;;;;;;5176722;28;20046;-75
2021/05/13 05:34:55;;;;;;;9.60;8.80;;;8.80;87.40;;;;;;5177766;28;20209;-75
2021/05/13 05:37:27;;;;;;;9.63;8.82;;;8.70;87.00;;;;;;5177197;28;20559;-75
2021/05/13 05:40:02;;;;;;;10.60;9.70;;;8.70;87.00;;;;;;5179018;28;20034;-75
2021/05/13 05:42:34;;;;;;;10.10;9.30;;;8.70;87.70;;;;;;5176510;28;20046;-74
2021/05/13 05:45:06;;;;;;;10.32;9.32;;;8.70;88.00;;;;;;5170212;28;20388;-75
2021/05/13 05:47:38;;;;;;;10.45;9.65;;;8.70;88.50;;;;;;5181825;28;20045;-74
2021/05/13 05:50:11;;;;;;;10.45;9.65;;;8.70;88.00;;;;;;5177032;28;20042;-73
2021/05/13 05:52:43;;;;;;;10.60;9.75;;;8.60;88.30;;;;;;5160670;28;20092;-75
2021/05/13 05:55:15;;;;;;;10.55;9.75;;;8.60;88.70;;;;;;5175858;28;20037;-74
2021/05/13 05:57:47;;;;;;;10.63;9.77;;;8.50;88.40;;;;;;5176244;28;20045;-75
2021/05/13 06:00:19;;;;;;;9.98;9.18;;;8.50;88.40;;;;;;5177164;28;20092;-75
2021/05/13 06:02:51;;;;;;;10.18;9.38;;;8.50;88.60;;;;;;5177176;28;20042;-75
2021/05/13 06:05:24;;;;;;;10.15;9.35;;;8.60;88.60;;;;;;5175612;28;20049;-76
2021/05/13 06:07:56;;;;;;;10.30;9.50;;;8.60;88.30;;;;;;5177993;28;20054;-75
2021/05/13 06:10:28;;;;;;;10.13;9.32;;;8.70;88.50;;;;;;5176882;28;20143;-76
2021/05/13 06:13:00;;;;;;;29.77;24.30;;;8.80;88.90;;;;;;5178704;28;20133;-76
2021/05/13 06:15:33;;;;;;;23.38;20.88;;;8.90;88.70;;;;;;5178713;28;20065;-76
2021/05/13 06:18:05;;;;;;;13.60;12.40;;;8.90;88.40;;;;;;5181394;28;20886;-76
2021/05/13 06:20:37;;;;;;;11.02;10.13;;;9.00;88.40;;;;;;5180060;28;20069;-75
2021/05/13 06:23:09;;;;;;;11.50;10.60;;;9.00;88.20;;;;;;5179902;28;20100;-75
2021/05/13 06:25:41;;;;;;;10.90;10.10;;;9.00;88.10;;;;;;5181260;28;20042;-75
2021/05/13 06:28:13;;;;;;;10.70;9.80;;;9.00;88.20;;;;;;5182086;28;20068;-75
2021/05/13 06:30:46;;;;;;;10.52;9.73;;;9.00;88.30;;;;;;5178822;28;20569;-75
2021/05/13 06:33:18;;;;;;;10.38;9.57;;;9.00;87.90;;;;;;5179686;28;20100;-75
2021/05/13 06:35:50;;;;;;;10.75;9.85;;;9.00;87.90;;;;;;5181633;28;20046;-74
2021/05/13 06:38:22;;;;;;;10.00;9.20;;;9.10;88.10;;;;;;5181160;28;20038;-75
2021/05/13 06:40:54;;;;;;;9.88;9.07;;;9.10;87.10;;;;;;5180793;28;20099;-75
2021/05/13 06:43:26;;;;;;;10.02;9.23;;;9.00;86.00;;;;;;5180723;28;20526;-74
2021/05/13 06:45:57;;;;;;;10.45;9.55;;;9.10;88.10;;;;;;5180415;28;20052;-75
2021/05/13 06:48:30;;;;;;;10.95;9.98;;;9.10;86.40;;;;;;5180502;28;20054;-75
2021/05/13 06:51:03;;;;;;;10.25;9.35;;;9.00;86.30;;;;;;5179422;28;20046;-76
2021/05/13 06:53:35;;;;;;;10.20;9.40;;;9.00;85.70;;;;;;5181144;28;20080;-75
2021/05/13 06:56:07;;;;;;;10.02;9.13;;;8.90;86.70;;;;;;5177806;28;20054;-76
2021/05/13 06:58:39;;;;;;;10.00;8.50;;;8.90;86.50;;;;;;5179495;28;20419;-76
2021/05/13 07:01:11;;;;;;;9.70;8.85;;;8.80;86.50;;;;;;5178482;28;20045;-76
2021/05/13 07:03:43;;;;;;;9.52;8.73;;;8.80;86.60;;;;;;5181156;28;20507;-76
2021/05/13 07:06:15;;;;;;;9.68;8.77;;;8.80;86.80;;;;;;5180500;28;20046;-76
2021/05/13 07:08:47;;;;;;;9.77;9.05;;;8.80;86.40;;;;;;5180806;28;20100;-76
2021/05/13 07:11:18;;;;;;;9.18;8.48;;;8.80;86.40;;;;;;5177691;28;20096;-77
2021/05/13 07:13:50;;;;;;;9.23;8.52;;;8.80;86.40;;;;;;5178948;28;20056;-76
2021/05/13 07:16:22;;;;;;;10.00;9.20;;;8.80;86.70;;;;;;5179785;28;20545;-76
2021/05/13 07:18:54;;;;;;;10.30;9.40;;;8.80;86.70;;;;;;5177053;28;20038;-76
2021/05/13 07:21:27;;;;;;;11.52;10.40;;;8.80;87.70;;;;;;5176208;28;20552;-76
2021/05/13 07:24:00;;;;;;;24.55;21.55;;;8.80;86.20;;;;;;5180159;28;20046;-76
2021/05/13 07:26:32;;;;;;;11.82;10.77;;;8.80;86.10;;;;;;5178289;28;20038;-76
2021/05/13 07:29:06;;;;;;;10.18;9.27;;;8.80;85.80;;;;;;5179452;28;20462;-76
2021/05/13 07:31:38;;;;;;;10.38;9.48;;;8.80;86.10;;;;;;5178940;28;20042;-76
2021/05/13 07:34:10;;;;;;;9.20;8.30;;;8.80;85.30;;;;;;5180250;28;20041;-76
2021/05/13 07:36:42;;;;;;;8.73;8.02;;;8.80;85.10;;;;;;5178607;28;20478;-76
2021/05/13 07:39:15;;;;;;;8.45;7.75;;;8.70;84.50;;;;;;5179418;28;20392;-76
2021/05/13 07:41:47;;;;;;;8.80;8.10;;;8.60;84.80;;;;;;5178321;28;20042;-75
2021/05/13 07:44:20;;;;;;;10.68;9.77;;;8.70;85.30;;;;;;5179093;28;20034;-75
2021/05/13 07:46:54;;;;;;;9.57;8.77;;;8.70;85.50;;;;;;5178495;28;20462;-75
2021/05/13 07:49:27;;;;;;;9.07;8.38;;;8.70;85.70;;;;;;5179603;28;20053;-76
2021/05/13 07:51:59;;;;;;;10.38;9.48;;;8.70;86.70;;;;;;5176395;28;20042;-75
2021/05/13 07:54:31;;;;;;;8.90;8.20;;;8.80;86.80;;;;;;5177953;28;20038;-75
2021/05/13 07:57:07;;;;;;;9.27;8.57;;;8.70;86.50;;;;;;5176125;28;20185;-76
2021/05/13 07:59:39;;;;;;;8.60;7.90;;;8.70;86.70;;;;;;5175478;28;20509;-76
2021/05/13 08:02:11;;;;;;;8.80;8.10;;;8.80;87.40;;;;;;5173988;28;20531;-76
2021/05/13 08:04:43;;;;;;;10.07;9.07;;;9.00;87.60;;;;;;5174914;28;20080;-74
2021/05/13 08:07:21;;;;;;;19.27;16.27;;;9.10;87.20;;;;;;5175237;28;20834;-73
2021/05/13 08:09:53;;;;;;;9.43;8.63;;;9.30;87.40;;;;;;5177585;28;20050;-74
2021/05/13 08:12:26;;;;;;;8.50;7.80;;;9.30;87.30;;;;;;5178644;28;20073;-74
2021/05/13 08:14:58;;;;;;;8.90;8.05;;;9.30;86.80;;;;;;5179256;28;20054;-74
2021/05/13 08:17:30;;;;;;;8.88;8.10;;;9.30;87.20;;;;;;5177490;28;20046;-74
2021/05/13 08:20:04;;;;;;;9.00;8.20;;;9.30;87.50;;;;;;5180492;28;20046;-73
2021/05/13 08:22:36;;;;;;;9.55;8.75;;;9.40;86.30;;;;;;5179580;28;20053;-73
2021/05/13 08:25:10;;;;;;;8.90;8.10;;;9.40;87.00;;;;;;5177942;28;20458;-73
2021/05/13 08:27:42;;;;;;;8.80;8.10;;;9.40;87.30;;;;;;5178824;28;20140;-75
2021/05/13 08:30:14;;;;;;;8.65;7.95;;;9.40;85.10;;;;;;5186745;28;20096;-75
2021/05/13 08:32:46;;;;;;;8.68;7.97;;;9.40;84.50;;;;;;5179639;28;20042;-74
2021/05/13 08:35:18;;;;;;;8.65;7.95;;;9.40;85.20;;;;;;5180517;28;20825;-75
2021/05/13 08:37:50;;;;;;;8.98;7.60;;;9.40;84.50;;;;;;5178527;28;20068;-74
2021/05/13 08:40:22;;;;;;;8.75;8.00;;;9.50;86.10;;;;;;5180275;28;20108;-74
2021/05/13 08:42:55;;;;;;;8.80;8.10;;;9.70;85.70;;;;;;5179805;28;20626;-74
2021/05/13 08:45:35;;;;;;;9.00;8.30;;;9.80;84.00;;;;;;5177144;28;20041;-75
2021/05/13 08:48:07;;;;;;;9.18;8.40;;;10.00;85.10;;;;;;5179296;28;20045;-74
2021/05/13 08:50:39;;;;;;;8.90;8.20;;;10.10;85.00;;;;;;5179601;28;20053;-74
2021/05/13 08:53:11;;;;;;;9.10;8.40;;;10.30;85.20;;;;;;5162482;28;20049;-73
2021/05/13 08:55:43;;;;;;;8.40;7.68;;;10.40;83.60;;;;;;5177244;28;20045;-73
2021/05/13 08:58:15;;;;;;;9.07;8.25;;;10.40;83.20;;;;;;5180054;28;20045;-75
2021/05/13 09:00:54;;;;;;;8.68;7.97;;;10.50;85.40;;;;;;5179602;28;20033;-74
2021/05/13 09:03:30;;;;;;;8.60;7.90;;;10.60;81.80;;;;;;5179361;28;20605;-74
2021/05/13 09:06:05;;;;;;;9.68;8.88;;;10.70;83.00;;;;;;5177530;28;20129;-75
2021/05/13 09:08:38;;;;;;;8.88;8.18;;;10.80;82.60;;;;;;5195586;28;20053;-76
2021/05/13 09:11:13;;;;;;;8.88;8.18;;;10.80;79.50;;;;;;5176550;28;20050;-73
2021/05/13 09:13:58;;;;;;;17.08;15.35;;;10.90;80.60;;;;;;5166824;28;20046;-75
2021/05/13 09:16:37;;;;;;;10.10;9.30;;;11.00;80.90;;;;;;5171138;28;20042;-74
2021/05/13 09:19:36;;;;;;;11.35;10.45;;;11.10;78.60;;;;;;5175293;28;20038;-74
2021/05/13 09:22:10;;;;;;;11.38;10.38;;;11.30;77.80;;;;;;5170981;28;20115;-74
2021/05/13 09:25:07;;;;;;;10.27;9.38;;;11.30;79.50;;;;;;5179297;28;20111;-74
2021/05/13 09:27:46;;;;;;;9.30;8.50;;;11.40;78.40;;;;;;5177073;28;20049;-76
2021/05/13 09:30:24;;;;;;;10.68;9.77;;;11.50;80.80;;;;;;5178818;28;20045;-75
2021/05/13 09:32:59;;;;;;;10.35;9.45;;;11.60;80.10;;;;;;5178661;28;20041;-73
2021/05/13 09:35:33;;;;;;;9.00;8.20;;;11.70;79.90;;;;;;5178539;28;20080;-72
2021/05/13 09:38:09;;;;;;;8.80;8.07;;;11.80;76.30;;;;;;5179919;28;20144;-73
2021/05/13 09:40:49;;;;;;;8.85;8.00;;;11.60;76.70;;;;;;5177017;28;20529;-74
2021/05/13 09:43:24;;;;;;;8.85;8.15;;;11.60;77.40;;;;;;5177170;28;20058;-74
2021/05/13 09:46:02;;;;;;;8.88;8.18;;;11.70;76.60;;;;;;5192259;28;20049;-74
2021/05/13 09:48:44;;;;;;;9.30;8.40;;;11.70;78.00;;;;;;5179296;28;20099;-73
2021/05/13 09:51:36;;;;;;;9.77;8.95;;;11.70;79.10;;;;;;5182376;28;20577;-73
2021/05/13 09:54:15;;;;;;;9.20;8.50;;;11.80;76.70;;;;;;5183235;28;20050;-72
2021/05/13 09:56:54;;;;;;;8.85;8.15;;;12.00;78.30;;;;;;5183865;28;20562;-73
2021/05/13 09:59:31;;;;;;;8.82;8.10;;;12.20;76.30;;;;;;5187468;28;20038;-72
2021/05/13 10:02:08;;;;;;;11.05;10.07;;;12.30;77.70;;;;;;5179729;28;20049;-73
2021/05/13 10:04:40;;;;;;;10.00;9.05;;;12.40;74.50;;;;;;5182157;28;20808;-74
2021/05/13 10:07:12;;;;;;;9.85;8.95;;;12.70;74.10;;;;;;5179361;28;20486;-73
2021/05/13 10:09:46;;;;;;;9.85;9.05;;;13.00;72.10;;;;;;5179156;28;20046;-71
2021/05/13 10:12:31;;;;;;;10.27;9.27;;;13.00;71.20;;;;;;5180655;28;20116;-72
2021/05/13 10:15:04;;;;;;;10.68;9.77;;;13.10;74.90;;;;;;5181594;28;20072;-70
2021/05/13 10:17:48;;;;;;;9.23;8.45;;;13.20;70.40;;;;;;5182842;28;20030;-71
2021/05/13 10:20:23;;;;;;;9.05;8.35;;;13.30;73.30;;;;;;5180567;28;20435;-70
2021/05/13 10:22:55;;;;;;;13.68;12.30;;;13.30;71.30;;;;;;5180198;28;20055;-70
2021/05/13 10:25:30;;;;;;;9.68;8.88;;;13.20;70.00;;;;;;5180453;28;20617;-71
2021/05/13 10:28:04;;;;;;;9.80;9.10;;;13.30;73.20;;;;;;5181462;28;20496;-71
2021/05/13 10:30:39;;;;;;;9.30;8.60;;;13.40;74.00;;;;;;5180401;28;20042;-71
2021/05/13 10:33:12;;;;;;;8.70;8.00;;;13.30;72.40;;;;;;5182921;28;20073;-71
2021/05/13 10:36:08;;;;;;;9.00;8.30;;;13.40;72.00;;;;;;5180746;28;20050;-70
2021/05/13 10:38:45;;;;;;;10.15;9.25;;;13.30;73.40;;;;;;5183107;28;20084;-70
2021/05/13 10:41:43;;;;;;;9.05;8.35;;;13.40;74.00;;;;;;5182050;28;20046;-70
2021/05/13 10:44:15;;;;;;;9.85;8.98;;;13.40;73.30;;;;;;5173683;28;20108;-71
2021/05/13 10:46:55;;;;;;;9.68;8.88;;;13.40;73.60;;;;;;5181752;28;20062;-72
2021/05/13 10:49:28;;;;;;;9.38;8.68;;;13.30;71.80;;;;;;5181878;28;20038;-71
2021/05/13 10:52:34;;;;;;;9.93;9.13;;;13.30;72.90;;;;;;5180244;28;20049;-71
2021/05/13 10:55:08;;;;;;;9.23;8.50;;;13.30;74.70;;;;;;5181009;28;20044;-70
2021/05/13 10:57:48;;;;;;;9.73;8.98;;;13.40;72.30;;;;;;5180401;28;20915;-72
2021/05/13 11:00:20;;;;;;;9.77;9.07;;;13.40;71.00;;;;;;5179227;28;20038;-71
2021/05/13 11:02:54;;;;;;;9.65;8.95;;;13.40;72.00;;;;;;5187214;28;20053;-71
2021/05/13 11:05:43;;;;;;;9.63;8.93;;;13.50;70.90;;;;;;5181295;28;20045;-71
2021/05/13 11:08:18;;;;;;;10.32;9.52;;;13.60;71.80;;;;;;5196263;28;20054;-71
2021/05/13 11:10:58;;;;;;;11.32;10.32;;;13.80;72.90;;;;;;5183073;28;20053;-69
2021/05/13 11:13:41;;;;;;;10.20;9.40;;;13.80;71.10;;;;;;5185828;28;20629;-70
2021/05/13 11:16:40;;;;;;;10.20;9.35;;;14.00;70.40;;;;;;5182801;28;20053;-70
2021/05/13 11:19:27;;;;;;;9.82;9.10;;;14.20;70.60;;;;;;5181017;28;20050;-70
2021/05/13 11:22:06;;;;;;;9.60;8.90;;;14.30;66.10;;;;;;5182855;28;20061;-71
2021/05/13 11:24:40;;;;;;;9.70;8.88;;;14.20;68.00;;;;;;5181033;28;20057;-71
2021/05/13 11:27:13;;;;;;;9.57;8.70;;;14.20;67.40;;;;;;5179955;28;20096;-70
2021/05/13 11:29:51;;;;;;;9.43;8.73;;;14.10;67.20;;;;;;5182347;28;20046;-71
2021/05/13 11:32:23;;;;;;;10.02;9.23;;;13.90;65.90;;;;;;5173734;28;20050;-73
2021/05/13 11:34:55;;;;;;;9.40;8.57;;;13.80;66.50;;;;;;5178658;28;20100;-73
2021/05/13 11:37:44;;;;;;;11.07;9.20;;;13.70;68.30;;;;;;5176746;28;20050;-76
2021/05/13 11:40:27;;;;;;;9.55;8.65;;;13.70;72.20;;;;;;5179252;28;20457;-73
2021/05/13 11:43:19;;;;;;;9.57;8.80;;;13.80;72.40;;;;;;5179433;28;20100;-76
2021/05/13 11:45:55;;;;;;;10.18;9.38;;;13.70;71.50;;;;;;5178977;28;20100;-74
2021/05/13 11:48:45;;;;;;;13.07;11.88;;;13.70;71.50;;;;;;5176498;28;20549;-74
2021/05/13 11:51:21;;;;;;;10.40;9.60;;;13.80;72.60;;;;;;5184775;28;20097;-74
2021/05/13 11:53:59;;;;;;;13.05;11.90;;;13.80;73.10;;;;;;5182526;28;20045;-75
2021/05/13 11:56:37;;;;;;;11.75;10.75;;;13.90;72.90;;;;;;5178932;28;20057;-74
2021/05/13 11:59:11;;;;;;;11.02;10.13;;;13.80;71.70;;;;;;5180908;28;20527;-73
2021/05/13 12:01:44;;;;;;;10.45;9.65;;;13.90;74.40;;;;;;5182441;28;20049;-75
2021/05/13 12:04:21;;;;;;;10.60;9.70;;;14.00;75.30;;;;;;5183380;28;20050;-74
2021/05/13 12:07:02;;;;;;;10.43;9.55;;;14.10;75.00;;;;;;5178194;28;20442;-75
2021/05/13 12:09:34;;;;;;;10.70;9.90;;;14.20;71.90;;;;;;5179766;28;20156;-74
2021/05/13 12:12:06;;;;;;;10.65;9.85;;;14.50;70.90;;;;;;5178487;28;20044;-75
2021/05/13 12:14:38;;;;;;;10.63;9.82;;;15.10;70.40;;;;;;5181938;28;20049;-74
2021/05/13 12:17:11;;;;;;;65.72;56.88;;;15.50;70.80;;;;;;5181144;28;20413;-74
2021/05/13 12:19:43;;;;;;;35.65;32.15;;;15.80;69.10;;;;;;5169499;28;20038;-75
2021/05/13 12:22:18;;;;;;;53.67;48.38;;;15.80;66.70;;;;;;5177446;28;20493;-75
2021/05/13 12:24:53;;;;;;;15.32;13.93;;;15.70;64.70;;;;;;5176474;28;20559;-74
2021/05/13 12:27:25;;;;;;;12.27;11.27;;;15.60;68.60;;;;;;5175579;28;20042;-74
2021/05/13 12:29:57;;;;;;;17.35;15.95;;;15.60;65.80;;;;;;5178363;28;20944;-75
2021/05/13 12:32:33;;;;;;;12.50;11.50;;;15.50;66.40;;;;;;5176985;28;20046;-75
2021/05/13 12:35:30;;;;;;;12.73;11.63;;;15.40;64.60;;;;;;5177655;28;20034;-75
2021/05/13 12:38:16;;;;;;;10.70;9.90;;;15.40;67.20;;;;;;5178209;28;20041;-75
2021/05/13 12:41:04;;;;;;;14.73;13.32;;;15.30;67.00;;;;;;5177703;28;20293;-75
2021/05/13 12:43:37;;;;;;;12.43;11.30;;;15.20;64.50;;;;;;5178205;28;20069;-74
2021/05/13 12:46:19;;;;;;;10.60;9.70;;;15.20;68.80;;;;;;5179903;28;20046;-74
2021/05/13 12:48:53;;;;;;;9.43;8.52;;;15.00;65.80;;;;;;5178325;28;20084;-75
2021/05/13 12:51:26;;;;;;;11.35;9.40;;;14.70;64.30;;;;;;5175641;28;20045;-75
2021/05/13 12:53:58;;;;;;;10.30;9.50;;;14.40;64.50;;;;;;5178527;28;20050;-75
2021/05/13 12:56:32;;;;;;;10.68;9.77;;;14.20;67.90;;;;;;5192757;28;20034;-74
2021/05/13 12:59:07;;;;;;;10.80;9.90;;;14.20;68.50;;;;;;5177251;28;20037;-76
2021/05/13 13:01:55;;;;;;;10.57;9.75;;;14.10;65.80;;;;;;5177091;28;20037;-75
2021/05/13 13:04:54;;;;;;;11.07;10.13;;;14.00;69.70;;;;;;5180546;28;20061;-74
2021/05/13 13:07:39;;;;;;;10.45;9.57;;;14.10;69.50;;;;;;5184251;28;20062;-75
2021/05/13 13:10:32;;;;;;;10.73;9.73;;;13.90;69.40;;;;;;5177545;28;20061;-75
2021/05/13 13:13:11;;;;;;;9.90;9.10;;;13.80;69.00;;;;;;5177167;28;20048;-75
2021/05/13 13:15:52;;;;;;;10.45;9.45;;;13.80;69.60;;;;;;5176345;28;20054;-75
2021/05/13 13:18:25;;;;;;;11.43;10.32;;;14.00;71.30;;;;;;5175707;28;20515;-77
2021/05/13 13:21:10;;;;;;;10.75;9.95;;;14.20;72.70;;;;;;5177298;28;20049;-77
2021/05/13 13:23:43;;;;;;;13.95;12.73;;;14.40;69.50;;;;;;5176490;28;20065;-75
2021/05/13 13:26:17;;;;;;;11.27;10.38;;;14.60;70.20;;;;;;5176834;28;20049;-74
2021/05/13 13:28:49;;;;;;;10.18;9.23;;;14.70;64.90;;;;;;5177325;28;20412;-73
2021/05/13 13:31:23;;;;;;;10.27;9.48;;;14.50;66.60;;;;;;5193693;28;20046;-74
2021/05/13 13:33:56;;;;;;;10.38;9.48;;;14.30;67.60;;;;;;5178086;28;20045;-72